Tara Dawn — WDC4097 — position and weather

sailwx.info

Track history (hours):
 
Tides and Currents Weather Stations Pressure Air Temp Water Temp Dewpoint Dewpoint Depression Visibility Wind Speed Wind Dir Waves Ship Positions

Tara Dawn

Owner: F/V TARA DAWN INC., Fort Bragg,, CA. More information available from US FCC via Universal Licensing System and Coast Guard Vessel Documentation Center.

Last reported at 2017-Oct-26 12:50 UTC. Time now 2017-Nov-20 02:08 UTC.
Position N 44°46' W 124°31'.
Warning: this ship's position is 24 days out of date.

Length 20 m.

Type: Fishing. MMSI: 367019070.

Date/timePositionNaut miles runAvg speedWind from/ knotsBaromVisibWave heightAir tempDewpointWater temp
2017-Oct-26 12:50N 44°46' W 124°31'2 2.1
2017-Oct-26 11:45N 44°46' W 124°27'0 1.1
2017-Oct-26 11:25N 44°46' W 124°28'1 2.2
2017-Oct-26 10:58N 44°46' W 124°29'7 0.2
2017-Oct-25 02:18N 44°46' W 124°20'4 8.6
2017-Oct-25 01:48N 44°49' W 124°24'2 7.2
2017-Oct-25 01:30N 44°50' W 124°26'1 1.6
2017-Oct-25 01:01N 44°51' W 124°27'1 2.2
2017-Oct-25 00:30N 44°50' W 124°28'1 2.2
2017-Oct-25 00:01N 44°49' W 124°29'1 2.3
2017-Oct-24 23:24N 44°48' W 124°30'1 2.4
2017-Oct-24 23:01N 44°47' W 124°31'5 0.4
2017-Oct-24 08:42N 44°48' W 124°23'0 0.2
2017-Oct-24 06:42N 44°49' W 124°24'0 0.2
2017-Oct-24 06:30N 44°49' W 124°24'0 0.3
2017-Oct-24 06:00N 44°49' W 124°23'0 0.4
2017-Oct-24 05:30N 44°49' W 124°23'1 2.8
2017-Oct-24 05:00N 44°48' W 124°25'2 4.4
2017-Oct-24 04:31N 44°47' W 124°27'2 4.1
2017-Oct-24 04:00N 44°45' W 124°29'0 0.9
2017-Oct-24 03:31N 44°46' W 124°29'2 3.9
2017-Oct-24 02:59N 44°46' W 124°31'0 0.6
2017-Oct-24 02:31N 44°47' W 124°31'9 2.8
2017-Oct-23 23:21N 44°54' W 124°24'1 1.9
2017-Oct-23 23:00N 44°53' W 124°25'1 2.2
2017-Oct-23 22:30N 44°53' W 124°26'1 2.3
2017-Oct-23 22:00N 44°52' W 124°27'1 2.3
2017-Oct-23 21:30N 44°51' W 124°28'1 2.3
2017-Oct-23 21:01N 44°50' W 124°29'1 2.4
2017-Oct-23 20:30N 44°49' W 124°30'1 2.4
2017-Oct-23 20:00N 44°48' W 124°31'1 2.4
2017-Oct-23 19:30N 44°47' W 124°31'  
2017-Oct-17 05:15N 44°36' W 124°08'3 8.3
2017-Oct-17 04:54N 44°37' W 124°12'5 8.6
2017-Oct-17 04:19N 44°38' W 124°19'5 3.8
2017-Oct-17 03:01N 44°41' W 124°25'2 1.1
2017-Oct-17 01:39N 44°42' W 124°23'0 2.7
2017-Oct-17 01:29N 44°42' W 124°23'1 2.6
2017-Oct-17 01:00N 44°40' W 124°23'1 1.2
2017-Oct-16 23:53N 44°41' W 124°25'1 2.3
2017-Oct-16 23:26N 44°41' W 124°26'1 2.5
2017-Oct-16 22:59N 44°42' W 124°27'4 3.2
2017-Oct-16 21:40N 44°46' W 124°29'0 2.5
2017-Oct-16 21:29N 44°46' W 124°30'1 1.4
2017-Oct-16 20:50N 44°46' W 124°31'1 2.7
2017-Oct-16 20:23N 44°46' W 124°29'1 1.7
2017-Oct-16 19:56N 44°45' W 124°29'1 2.3
2017-Oct-16 19:21N 44°46' W 124°29'1 2.6
2017-Oct-16 18:57N 44°47' W 124°28'5 2.7
2017-Oct-16 17:15N 44°52' W 124°25'0 1.6
2017-Oct-16 16:57N 44°52' W 124°26'1 2.4
2017-Oct-16 16:27N 44°51' W 124°27'1 2.4
2017-Oct-16 16:00N 44°50' W 124°28'1 2.4
2017-Oct-16 15:28N 44°49' W 124°29'1 2.4
2017-Oct-16 14:57N 44°48' W 124°30'1 2.4
2017-Oct-16 14:30N 44°47' W 124°31'3 2.2
2017-Oct-16 13:17N 44°46' W 124°28'  
Track history (hours):
 
Tides and Currents Weather Stations Pressure Air Temp Water Temp Dewpoint Dewpoint Depression Visibility Wind Speed Wind Dir Waves Ship Positions

Tara Dawn

Owner: F/V TARA DAWN INC., Fort Bragg,, CA. More information available from US FCC via Universal Licensing System and Coast Guard Vessel Documentation Center.

Last reported at 2017-Oct-26 12:50 UTC. Time now 2017-Nov-20 02:08 UTC.
Position N 44°46' W 124°31'.
Warning: this ship's position is 24 days out of date.

Length 20 m.

Type: Fishing. MMSI: 367019070.

Date/timePositionNaut miles runAvg speedWind from/ knotsBaromVisibWave heightAir tempDewpointWater temp
2017-Oct-26 12:50N 44°46' W 124°31'2 2.1
2017-Oct-26 11:45N 44°46' W 124°27'0 1.1
2017-Oct-26 11:25N 44°46' W 124°28'1 2.2
2017-Oct-26 10:58N 44°46' W 124°29'7 0.2
2017-Oct-25 02:18N 44°46' W 124°20'4 8.6
2017-Oct-25 01:48N 44°49' W 124°24'2 7.2
2017-Oct-25 01:30N 44°50' W 124°26'1 1.6
2017-Oct-25 01:01N 44°51' W 124°27'1 2.2
2017-Oct-25 00:30N 44°50' W 124°28'1 2.2
2017-Oct-25 00:01N 44°49' W 124°29'1 2.3
2017-Oct-24 23:24N 44°48' W 124°30'1 2.4
2017-Oct-24 23:01N 44°47' W 124°31'5 0.4
2017-Oct-24 08:42N 44°48' W 124°23'0 0.2
2017-Oct-24 06:42N 44°49' W 124°24'0 0.2
2017-Oct-24 06:30N 44°49' W 124°24'0 0.3
2017-Oct-24 06:00N 44°49' W 124°23'0 0.4
2017-Oct-24 05:30N 44°49' W 124°23'1 2.8
2017-Oct-24 05:00N 44°48' W 124°25'2 4.4
2017-Oct-24 04:31N 44°47' W 124°27'2 4.1
2017-Oct-24 04:00N 44°45' W 124°29'0 0.9
2017-Oct-24 03:31N 44°46' W 124°29'2 3.9
2017-Oct-24 02:59N 44°46' W 124°31'0 0.6
2017-Oct-24 02:31N 44°47' W 124°31'9 2.8
2017-Oct-23 23:21N 44°54' W 124°24'1 1.9
2017-Oct-23 23:00N 44°53' W 124°25'1 2.2
2017-Oct-23 22:30N 44°53' W 124°26'1 2.3
2017-Oct-23 22:00N 44°52' W 124°27'1 2.3
2017-Oct-23 21:30N 44°51' W 124°28'1 2.3
2017-Oct-23 21:01N 44°50' W 124°29'1 2.4
2017-Oct-23 20:30N 44°49' W 124°30'1 2.4
2017-Oct-23 20:00N 44°48' W 124°31'1 2.4
2017-Oct-23 19:30N 44°47' W 124°31'  
2017-Oct-17 05:15N 44°36' W 124°08'3 8.3
2017-Oct-17 04:54N 44°37' W 124°12'5 8.6
2017-Oct-17 04:19N 44°38' W 124°19'5 3.8
2017-Oct-17 03:01N 44°41' W 124°25'2 1.1
2017-Oct-17 01:39N 44°42' W 124°23'0 2.7
2017-Oct-17 01:29N 44°42' W 124°23'1 2.6
2017-Oct-17 01:00N 44°40' W 124°23'1 1.2
2017-Oct-16 23:53N 44°41' W 124°25'1 2.3
2017-Oct-16 23:26N 44°41' W 124°26'1 2.5
2017-Oct-16 22:59N 44°42' W 124°27'4 3.2
2017-Oct-16 21:40N 44°46' W 124°29'0 2.5
2017-Oct-16 21:29N 44°46' W 124°30'1 1.4
2017-Oct-16 20:50N 44°46' W 124°31'1 2.7
2017-Oct-16 20:23N 44°46' W 124°29'1 1.7
2017-Oct-16 19:56N 44°45' W 124°29'1 2.3
2017-Oct-16 19:21N 44°46' W 124°29'1 2.6
2017-Oct-16 18:57N 44°47' W 124°28'5 2.7
2017-Oct-16 17:15N 44°52' W 124°25'0 1.6
2017-Oct-16 16:57N 44°52' W 124°26'1 2.4
2017-Oct-16 16:27N 44°51' W 124°27'1 2.4
2017-Oct-16 16:00N 44°50' W 124°28'1 2.4
2017-Oct-16 15:28N 44°49' W 124°29'1 2.4
2017-Oct-16 14:57N 44°48' W 124°30'1 2.4
2017-Oct-16 14:30N 44°47' W 124°31'3 2.2
2017-Oct-16 13:17N 44°46' W 124°28'  

Dump ship's entire track history